Time;durP1;ratioP1;P1;durP2;ratioP2;P2;SDS_P1;SDS_P2;PMS_P1;PMS_P2;Temp;Humidity;BMP_temperature;BMP_pressure;BME280_temperature;BME280_humidity;BME280_pressure;Samples;Min_cycle;Max_cycle;Signal;HPM_P1;HPM_P2
2022/01/08 00:01:39;;;;;;;16.42;9.35;;;3.40;99.90;;;;;;5037718;28;20036;-89
2022/01/08 00:42:17;;;;;;;18.75;10.18;;;3.20;99.90;;;;;;5043919;28;20044;-87
2022/01/08 03:12:09;;;;;;;18.83;11.50;;;2.40;99.90;;;;;;5033391;28;20040;-85
2022/01/08 03:23:22;;;;;;;16.60;10.77;;;2.50;99.90;;;;;;5033106;28;20030;-85
2022/01/08 04:20:13;;;;;;;15.85;8.82;;;2.20;99.90;;;;;;5036731;28;20122;-85
2022/01/08 04:36:26;;;;;;;24.67;8.75;;;2.20;99.90;;;;;;5036189;28;20037;-85
2022/01/08 04:46:13;;;;;;;19.35;8.80;;;2.20;99.90;;;;;;5036037;28;20037;-86
2022/01/08 05:02:26;;;;;;;20.30;8.38;;;2.10;99.90;;;;;;5046242;28;20474;-85
2022/01/08 05:30:13;;;;;;;20.38;8.55;;;1.90;99.90;;;;;;5034983;28;20068;-86
2022/01/08 05:39:42;;;;;;;15.95;8.48;;;1.80;99.90;;;;;;5034904;28;20031;-85
2022/01/08 05:45:48;;;;;;;20.10;8.98;;;1.80;99.90;;;;;;5034860;28;20040;-86
2022/01/08 05:52:01;;;;;;;18.35;8.80;;;1.80;99.90;;;;;;5034387;28;20041;-86
2022/01/08 06:01:16;;;;;;;16.75;8.38;;;1.80;99.90;;;;;;5034808;28;20572;-85
2022/01/08 06:10:30;;;;;;;19.20;8.60;;;1.80;99.90;;;;;;5034264;28;20083;-85
2022/01/08 06:12:56;;;;;;;20.15;10.52;;;1.80;99.90;;;;;;5000557;28;20128;-85
2022/01/08 06:15:35;;;;;;;16.80;8.65;;;1.80;99.90;;;;;;5000751;28;20124;-85
2022/01/08 06:21:38;;;;;;;23.98;10.32;;;1.70;99.90;;;;;;5034207;28;20392;-86
2022/01/08 06:28:15;;;;;;;19.67;10.00;;;1.70;99.90;;;;;;5033720;28;20547;-86
2022/01/08 06:34:11;;;;;;;17.00;8.85;;;1.70;99.90;;;;;;5034074;28;20425;-86
2022/01/08 06:40:04;;;;;;;20.67;9.98;;;1.70;99.90;;;;;;5034015;28;20078;-85
2022/01/08 06:42:29;;;;;;;19.45;8.52;;;1.70;99.90;;;;;;5016059;28;20060;-85
2022/01/08 06:44:55;;;;;;;22.42;10.20;;;1.70;99.90;;;;;;5000547;28;20072;-85
2022/01/08 06:47:21;;;;;;;26.42;10.25;;;1.70;99.90;;;;;;5000099;28;20387;-85
2022/01/08 06:49:46;;;;;;;20.17;9.93;;;1.70;99.90;;;;;;5016048;28;20033;-85
2022/01/08 06:52:51;;;;;;;24.98;10.13;;;1.70;99.90;;;;;;4983557;28;20034;-86
2022/01/08 06:58:41;;;;;;;24.17;9.10;;;1.70;99.90;;;;;;5033994;28;20054;-85
2022/01/08 07:04:36;;;;;;;18.40;10.15;;;1.70;99.90;;;;;;5033656;28;20020;-86
2022/01/08 07:10:54;;;;;;;23.88;10.73;;;1.70;99.90;;;;;;5033359;28;20036;-85
2022/01/08 07:13:19;;;;;;;26.30;10.75;;;1.70;99.90;;;;;;5016697;28;20087;-85
2022/01/08 07:15:45;;;;;;;22.63;11.45;;;1.70;99.90;;;;;;4984515;28;20029;-85
2022/01/08 07:18:12;;;;;;;21.90;11.55;;;1.70;99.90;;;;;;4984031;28;20451;-85
2022/01/08 07:24:40;;;;;;;25.10;11.00;;;1.80;99.90;;;;;;5037831;28;20108;-85
2022/01/08 07:31:18;;;;;;;22.00;10.60;;;1.80;99.90;;;;;;5035310;28;20436;-86
2022/01/08 07:33:49;;;;;;;26.42;11.75;;;1.80;99.90;;;;;;5019720;28;20033;-85
2022/01/08 07:36:16;;;;;;;23.10;11.50;;;1.80;99.90;;;;;;4989234;28;20033;-85
2022/01/08 07:45:51;;;;;;;17.70;10.00;;;1.80;99.90;;;;;;5036603;28;20029;-85
2022/01/08 07:52:18;;;;;;;21.95;11.85;;;1.80;99.90;;;;;;5037131;28;20485;-86
2022/01/08 07:59:04;;;;;;;22.55;11.88;;;1.90;99.90;;;;;;5036871;28;20024;-86
2022/01/08 08:09:17;;;;;;;20.80;11.20;;;1.90;99.90;;;;;;5036292;28;20029;-85
2022/01/08 08:15:45;;;;;;;22.17;11.40;;;1.90;99.90;;;;;;5036531;28;20068;-85
2022/01/08 08:25:00;;;;;;;18.63;10.90;;;2.00;99.90;;;;;;5035772;28;20496;-86
2022/01/08 08:44:47;;;;;;;25.48;13.25;;;2.10;99.90;;;;;;5037280;28;20033;-86
2022/01/08 09:01:06;;;;;;;23.38;11.63;;;2.20;99.90;;;;;;5050294;28;20025;-87
2022/01/08 09:31:53;;;;;;;20.95;9.15;;;2.40;99.90;;;;;;5067500;28;20113;-86
2022/01/08 09:42:24;;;;;;;19.40;9.90;;;2.50;99.90;;;;;;5055044;28;20081;-87
2022/01/08 09:48:49;;;;;;;19.25;9.02;;;2.50;99.90;;;;;;5054634;28;20079;-86
2022/01/08 09:55:25;;;;;;;19.27;10.23;;;2.60;99.90;;;;;;5055001;28;20043;-86
2022/01/08 10:01:31;;;;;;;22.33;10.35;;;2.70;99.90;;;;;;5055027;28;20458;-87
2022/01/08 10:04:00;;;;;;;28.27;11.50;;;2.60;99.90;;;;;;5053538;28;20037;-86
2022/01/08 10:06:31;;;;;;;22.35;11.10;;;2.70;99.90;;;;;;5052854;28;20389;-86
2022/01/08 10:09:24;;;;;;;22.38;11.43;;;2.70;99.90;;;;;;5053255;28;20163;-86
2022/01/08 10:22:00;;;;;;;20.40;11.23;;;2.70;99.90;;;;;;5053789;28;20067;-86
2022/01/08 10:24:28;;;;;;;21.55;12.55;;;2.80;99.90;;;;;;5076524;22;20365;-83
2022/01/08 10:27:03;;;;;;;25.75;12.90;;;2.70;99.90;;;;;;5054395;28;20122;-82
2022/01/08 10:29:28;;;;;;;27.73;12.60;;;2.80;99.90;;;;;;5052309;28;20040;-83
2022/01/08 10:31:55;;;;;;;29.02;13.07;;;2.90;99.90;;;;;;5035499;28;20026;-83
2022/01/08 10:34:36;;;;;;;28.95;13.77;;;2.80;99.90;;;;;;5035128;28;20060;-82
2022/01/08 10:37:04;;;;;;;29.02;12.98;;;2.90;99.90;;;;;;5037495;28;20036;-82
2022/01/08 10:39:34;;;;;;;28.05;13.07;;;2.90;99.90;;;;;;5066200;28;20094;-82
2022/01/08 10:42:11;;;;;;;27.00;14.10;;;3.00;99.90;;;;;;5063755;28;20036;-83
2022/01/08 10:44:37;;;;;;;25.35;13.35;;;3.00;99.90;;;;;;5056824;28;20115;-82
2022/01/08 10:47:07;;;;;;;20.52;11.57;;;3.00;99.90;;;;;;5052231;28;20433;-82
2022/01/08 10:49:40;;;;;;;24.73;12.43;;;3.10;99.90;;;;;;5051820;28;20474;-81
2022/01/08 10:52:59;;;;;;;22.17;12.27;;;3.00;99.90;;;;;;5051552;28;20045;-82
2022/01/08 10:55:32;;;;;;;27.63;13.48;;;3.10;99.90;;;;;;5064957;28;20029;-82
2022/01/08 10:57:58;;;;;;;27.38;12.35;;;3.20;99.90;;;;;;5055224;28;20132;-82
2022/01/08 11:00:32;;;;;;;19.70;12.07;;;3.20;99.90;;;;;;5054786;28;20056;-82
2022/01/08 11:02:57;;;;;;;22.90;13.07;;;3.20;99.90;;;;;;5070474;28;20033;-82
2022/01/08 11:05:23;;;;;;;24.10;13.25;;;3.20;99.90;;;;;;5062230;28;20162;-82
2022/01/08 11:07:49;;;;;;;23.23;12.95;;;3.30;99.90;;;;;;5043563;28;20036;-83
2022/01/08 11:10:18;;;;;;;26.23;13.60;;;3.30;99.90;;;;;;5026610;28;20055;-82
2022/01/08 11:12:46;;;;;;;27.60;13.88;;;3.30;99.90;;;;;;5035145;28;20036;-82
2022/01/08 11:17:49;;;;;;;24.17;12.52;;;3.40;99.90;;;;;;5069803;28;20020;-82
2022/01/08 11:20:16;;;;;;;32.60;13.90;;;3.40;99.90;;;;;;5071788;28;20064;-83
2022/01/08 11:22:48;;;;;;;24.60;14.05;;;3.40;99.90;;;;;;5063528;28;20033;-82
2022/01/08 11:25:51;;;;;;;29.50;15.50;;;3.50;99.90;;;;;;5067397;28;20554;-83
2022/01/08 11:28:18;;;;;;;29.33;14.57;;;3.50;99.90;;;;;;5067757;28;20025;-82
2022/01/08 11:30:51;;;;;;;29.20;14.60;;;3.50;99.90;;;;;;5054478;28;20032;-82
2022/01/08 11:33:24;;;;;;;29.15;14.32;;;3.50;99.90;;;;;;5083028;28;20039;-83
2022/01/08 11:35:51;;;;;;;24.98;12.88;;;3.60;99.90;;;;;;5069488;28;20492;-82
2022/01/08 11:38:19;;;;;;;31.38;14.23;;;3.60;99.90;;;;;;5053110;28;20174;-81
2022/01/08 11:40:50;;;;;;;25.73;14.23;;;3.60;99.90;;;;;;5038545;28;20051;-82
2022/01/08 11:43:18;;;;;;;28.70;13.77;;;3.60;99.90;;;;;;5056824;28;20025;-82
2022/01/08 11:45:52;;;;;;;24.00;11.00;;;3.70;99.90;;;;;;5063393;28;20041;-82
2022/01/08 11:48:21;;;;;;;29.08;12.02;;;3.80;99.90;;;;;;5051364;28;20057;-82
2022/01/08 11:50:55;;;;;;;22.33;12.38;;;3.70;99.90;;;;;;5050747;28;20029;-82
2022/01/08 11:53:26;;;;;;;22.73;13.07;;;3.80;99.90;;;;;;5068521;28;20058;-82
2022/01/08 11:55:55;;;;;;;23.92;13.55;;;3.80;99.90;;;;;;5049555;28;20474;-82
2022/01/08 11:58:31;;;;;;;28.77;13.32;;;3.90;99.90;;;;;;5063570;28;20033;-82
2022/01/08 12:00:57;;;;;;;25.17;13.20;;;4.00;99.90;;;;;;5054293;28;20029;-82
2022/01/08 12:03:31;;;;;;;26.10;13.25;;;3.90;99.90;;;;;;5065715;28;20100;-82
2022/01/08 12:05:59;;;;;;;20.85;11.35;;;4.00;99.90;;;;;;5051295;28;20029;-82
2022/01/08 12:09:07;;;;;;;19.60;10.05;;;4.00;99.90;;;;;;5054265;28;20398;-82
2022/01/08 12:11:53;;;;;;;27.85;10.93;;;4.10;99.90;;;;;;5062143;28;20028;-82
2022/01/08 12:14:19;;;;;;;18.83;10.80;;;4.10;99.90;;;;;;5040990;28;20037;-82
2022/01/08 12:17:23;;;;;;;24.48;10.85;;;4.10;99.90;;;;;;5072295;28;20040;-82
2022/01/08 12:19:56;;;;;;;20.17;10.25;;;4.10;99.90;;;;;;5064200;28;20033;-82
2022/01/08 12:22:22;;;;;;;17.95;10.00;;;4.20;99.90;;;;;;5038042;28;20143;-82
2022/01/08 12:25:00;;;;;;;21.67;9.93;;;4.20;99.90;;;;;;5062898;28;20041;-82
2022/01/08 12:27:35;;;;;;;18.58;9.45;;;4.20;99.90;;;;;;5069196;28;20052;-82
2022/01/08 12:30:05;;;;;;;19.35;9.20;;;4.20;99.90;;;;;;5054417;28;20033;-82
2022/01/08 12:32:36;;;;;;;19.30;10.40;;;4.20;99.90;;;;;;5054335;28;20047;-82
2022/01/08 12:35:19;;;;;;;16.13;8.68;;;4.20;99.90;;;;;;5056066;28;20036;-83
2022/01/08 12:37:48;;;;;;;21.13;9.23;;;4.20;99.90;;;;;;5067479;28;20030;-82
2022/01/08 12:40:34;;;;;;;18.95;8.80;;;4.20;99.90;;;;;;5066207;28;20044;-83
2022/01/08 12:43:34;;;;;;;18.75;8.23;;;4.30;99.90;;;;;;5058199;28;20033;-83
2022/01/08 12:46:24;;;;;;;15.40;8.10;;;4.30;99.90;;;;;;5075293;28;20021;-83
2022/01/08 12:49:12;;;;;;;18.25;8.05;;;4.30;99.90;;;;;;5057816;28;20119;-83
2022/01/08 12:51:55;;;;;;;17.98;7.63;;;4.30;99.90;;;;;;5068920;28;20025;-82
2022/01/08 12:54:22;;;;;;;14.80;7.82;;;4.30;99.90;;;;;;5062814;28;20041;-83
2022/01/08 12:56:49;;;;;;;17.40;8.23;;;4.30;99.90;;;;;;5057221;28;20437;-82
2022/01/08 12:59:15;;;;;;;17.15;7.55;;;4.30;99.90;;;;;;5053989;28;20029;-83
2022/01/08 13:01:45;;;;;;;16.92;7.35;;;4.30;99.90;;;;;;5054173;28;20037;-85
2022/01/08 13:04:16;;;;;;;17.73;7.57;;;4.30;99.90;;;;;;5067056;28;20371;-88
2022/01/08 13:06:42;;;;;;;;;;;4.40;99.90;;;;;;5058949;28;20029;-87
2022/01/08 13:09:08;;;;;;;14.05;7.07;;;4.40;99.90;;;;;;5054042;28;19911;-88
2022/01/08 13:11:36;;;;;;;16.65;6.43;;;4.40;99.90;;;;;;5054629;28;20390;-87
2022/01/08 13:14:09;;;;;;;15.00;6.32;;;4.40;99.90;;;;;;5054541;28;20123;-87
2022/01/08 13:16:43;;;;;;;12.45;6.07;;;4.40;99.90;;;;;;5065749;28;20048;-87
2022/01/08 13:19:16;;;;;;;12.38;6.10;;;4.40;99.90;;;;;;5072675;28;20048;-87
2022/01/08 13:21:47;;;;;;;13.00;6.32;;;4.40;99.90;;;;;;5076344;28;20102;-87
2022/01/08 13:24:19;;;;;;;14.73;6.38;;;4.30;99.90;;;;;;5072770;28;20041;-87
2022/01/08 13:26:57;;;;;;;11.63;4.93;;;4.40;99.90;;;;;;5073931;28;20036;-87
2022/01/08 13:29:33;;;;;;;13.30;5.43;;;4.40;99.90;;;;;;5075390;28;20070;-87
2022/01/08 13:32:05;;;;;;;11.07;4.85;;;4.40;99.90;;;;;;5057697;28;20040;-87
2022/01/08 13:34:39;;;;;;;9.20;4.45;;;4.30;99.90;;;;;;5074341;28;20362;-87
2022/01/08 13:37:20;;;;;;;11.35;5.13;;;4.30;99.90;;;;;;5057929;28;20133;-87
2022/01/08 13:39:58;;;;;;;13.38;4.57;;;4.30;99.90;;;;;;5073502;28;20045;-86
2022/01/08 13:42:27;;;;;;;11.40;4.45;;;4.40;99.90;;;;;;5065569;28;20029;-87
2022/01/08 13:44:57;;;;;;;7.35;3.83;;;4.30;99.90;;;;;;5067665;28;20401;-88
2022/01/08 13:47:44;;;;;;;9.88;4.70;;;4.40;99.90;;;;;;5067512;28;20031;-88
2022/01/08 13:50:21;;;;;;;12.80;4.05;;;4.40;99.90;;;;;;5079227;28;20043;-87
2022/01/08 13:52:53;;;;;;;9.75;3.75;;;4.40;99.90;;;;;;5055239;28;20029;-87
2022/01/08 13:55:25;;;;;;;11.70;3.58;;;4.40;99.90;;;;;;5058895;28;20021;-88
2022/01/08 13:58:02;;;;;;;9.70;3.70;;;4.40;99.90;;;;;;5064089;28;20040;-88
2022/01/08 14:00:30;;;;;;;6.13;3.03;;;4.40;99.90;;;;;;5076166;28;20032;-87
2022/01/08 14:02:59;;;;;;;7.07;3.30;;;4.50;99.90;;;;;;5032659;28;20037;-86
2022/01/08 14:05:26;;;;;;;8.60;3.50;;;4.50;99.90;;;;;;5053535;28;20060;-88
2022/01/08 14:07:52;;;;;;;10.63;3.50;;;4.50;99.90;;;;;;5054395;28;20063;-88
2022/01/08 14:10:18;;;;;;;6.63;3.30;;;4.50;99.90;;;;;;5053397;28;20555;-87
2022/01/08 14:13:05;;;;;;;10.10;3.75;;;4.50;99.90;;;;;;5053261;28;20037;-86
2022/01/08 14:15:31;;;;;;;5.57;2.85;;;4.50;99.90;;;;;;5037212;28;20040;-88
2022/01/08 14:18:14;;;;;;;7.53;3.10;;;4.50;99.90;;;;;;5036640;28;20391;-87
2022/01/08 14:20:43;;;;;;;10.35;3.75;;;4.50;99.90;;;;;;5053103;28;20071;-87
2022/01/08 14:23:14;;;;;;;10.10;3.45;;;4.50;99.90;;;;;;5053495;28;20025;-86
2022/01/08 14:25:40;;;;;;;8.75;3.70;;;4.50;99.90;;;;;;5070710;28;20044;-88
2022/01/08 14:28:18;;;;;;;8.88;3.03;;;4.50;99.90;;;;;;5069843;28;20083;-85
2022/01/08 14:30:45;;;;;;;7.00;2.67;;;4.50;99.90;;;;;;5070527;28;20036;-86
2022/01/08 14:33:10;;;;;;;5.43;2.25;;;4.40;99.90;;;;;;5053220;28;20045;-87
2022/01/08 14:35:36;;;;;;;5.97;1.90;;;4.40;99.90;;;;;;5069637;28;20037;-88
2022/01/08 14:38:02;;;;;;;5.35;2.28;;;4.40;99.90;;;;;;5036908;28;20059;-86
2022/01/08 14:40:32;;;;;;;5.13;2.25;;;4.40;99.90;;;;;;5052194;28;20471;-86
2022/01/08 14:43:04;;;;;;;5.07;2.08;;;4.30;99.90;;;;;;5056028;28;20085;-86
2022/01/08 14:45:32;;;;;;;5.80;1.80;;;4.30;99.90;;;;;;5073209;28;20482;-86
2022/01/08 14:47:58;;;;;;;5.40;2.13;;;4.30;99.90;;;;;;5072713;28;20082;-86
2022/01/08 14:50:27;;;;;;;4.15;1.80;;;4.20;99.90;;;;;;5056596;28;20036;-86
2022/01/08 14:52:54;;;;;;;4.47;1.80;;;4.20;99.90;;;;;;5073127;28;20033;-87
2022/01/08 14:55:29;;;;;;;5.80;2.20;;;4.20;99.90;;;;;;5073636;28;20040;-85
2022/01/08 14:57:55;;;;;;;5.03;2.20;;;4.20;99.90;;;;;;5074099;28;20064;-87
2022/01/08 15:00:21;;;;;;;3.88;2.00;;;4.10;99.90;;;;;;5059902;28;20072;-87
2022/01/08 15:02:47;;;;;;;4.43;1.92;;;4.20;99.90;;;;;;5020174;28;20031;-87
2022/01/08 15:05:14;;;;;;;4.53;2.20;;;4.10;99.90;;;;;;5053726;28;20508;-88
2022/01/08 15:07:41;;;;;;;5.38;1.83;;;4.10;99.90;;;;;;5055295;28;20037;-86
2022/01/08 15:10:08;;;;;;;4.07;1.80;;;4.10;99.90;;;;;;5035978;28;20041;-85
2022/01/08 15:12:36;;;;;;;6.25;2.15;;;4.10;99.90;;;;;;5019519;28;20072;-86
2022/01/08 15:15:06;;;;;;;5.20;1.90;;;4.10;99.90;;;;;;5069143;28;20071;-86
2022/01/08 15:17:33;;;;;;;8.93;2.80;;;4.10;99.90;;;;;;5054249;28;20037;-85
2022/01/08 15:19:58;;;;;;;3.78;2.03;;;4.10;99.90;;;;;;5018595;28;20037;-85
2022/01/08 15:22:24;;;;;;;5.72;2.30;;;4.10;99.90;;;;;;5018745;28;20394;-85
2022/01/08 15:24:50;;;;;;;3.83;2.08;;;4.10;99.90;;;;;;5050866;28;20053;-85
2022/01/08 15:27:15;;;;;;;5.05;1.95;;;4.20;99.90;;;;;;5018916;28;20029;-85
2022/01/08 15:29:41;;;;;;;4.55;2.28;;;4.10;99.90;;;;;;5051981;28;20479;-86
2022/01/08 15:32:07;;;;;;;3.17;2.00;;;4.20;99.90;;;;;;5045612;28;20041;-86
2022/01/08 15:34:33;;;;;;;4.47;1.90;;;4.20;99.90;;;;;;5054953;28;20056;-86
2022/01/08 15:36:58;;;;;;;4.20;2.17;;;4.20;99.90;;;;;;5061098;28;20036;-86
2022/01/08 15:39:24;;;;;;;3.97;1.80;;;4.20;99.90;;;;;;5054775;28;20116;-86
2022/01/08 15:41:50;;;;;;;3.08;1.63;;;4.20;99.90;;;;;;5052606;28;21136;-86
2022/01/08 15:44:16;;;;;;;4.47;1.98;;;4.30;99.90;;;;;;5073095;28;20388;-86
2022/01/08 15:46:43;;;;;;;4.05;1.73;;;4.20;99.90;;;;;;5058922;28;20036;-86
2022/01/08 15:49:10;;;;;;;5.25;3.22;;;4.30;99.90;;;;;;5077013;28;20027;-87
2022/01/08 15:51:37;;;;;;;5.05;2.15;;;4.30;99.90;;;;;;5070372;28;20071;-86
2022/01/08 15:54:04;;;;;;;3.65;1.90;;;4.30;99.90;;;;;;5040955;28;20031;-87
2022/01/08 15:56:33;;;;;;;7.82;3.58;;;4.30;99.90;;;;;;5092262;28;20028;-87
2022/01/08 15:59:00;;;;;;;5.63;2.40;;;4.40;99.90;;;;;;5059417;28;20119;-86
2022/01/08 16:01:27;;;;;;;4.45;1.70;;;4.40;99.90;;;;;;5059414;28;20040;-86
2022/01/08 16:03:53;;;;;;;4.75;2.00;;;4.40;99.90;;;;;;5058545;28;20390;-87
2022/01/08 16:06:18;;;;;;;2.50;1.55;;;4.40;99.90;;;;;;5042267;28;20035;-87
2022/01/08 16:08:45;;;;;;;2.90;1.90;;;4.50;99.90;;;;;;5076564;28;20031;-87
2022/01/08 16:11:11;;;;;;;6.38;2.10;;;4.50;99.90;;;;;;5058558;28;20033;-87
2022/01/08 16:13:36;;;;;;;3.00;1.50;;;4.50;99.90;;;;;;5059389;28;20036;-85
2022/01/08 16:16:03;;;;;;;5.57;2.42;;;4.50;99.90;;;;;;5059153;28;20028;-86
2022/01/08 16:18:30;;;;;;;5.63;2.10;;;4.50;99.90;;;;;;5072165;28;20029;-86
2022/01/08 16:20:59;;;;;;;7.20;2.42;;;4.50;99.90;;;;;;5071349;28;20036;-86
2022/01/08 16:23:25;;;;;;;4.53;2.20;;;4.60;99.90;;;;;;5068578;28;20029;-86
2022/01/08 16:25:52;;;;;;;3.00;1.90;;;4.50;99.90;;;;;;5058740;28;20036;-86
2022/01/08 16:28:20;;;;;;;4.25;2.10;;;4.60;99.90;;;;;;5069383;28;20535;-86
2022/01/08 16:30:46;;;;;;;5.03;2.15;;;4.60;99.90;;;;;;5074425;28;20394;-86
2022/01/08 16:33:13;;;;;;;3.90;2.10;;;4.60;99.90;;;;;;5058539;28;20039;-86
2022/01/08 16:35:46;;;;;;;4.47;2.33;;;4.60;99.90;;;;;;5070416;28;20112;-86
2022/01/08 16:38:13;;;;;;;4.28;2.17;;;4.60;99.90;;;;;;5074228;28;20433;-86
2022/01/08 16:40:39;;;;;;;4.57;2.67;;;4.60;99.90;;;;;;5074401;28;20471;-86
2022/01/08 16:43:05;;;;;;;5.20;2.20;;;4.70;99.90;;;;;;5074567;28;20036;-86
2022/01/08 16:45:32;;;;;;;4.88;2.42;;;4.70;99.90;;;;;;5074560;28;20477;-87
2022/01/08 16:47:58;;;;;;;4.40;2.30;;;4.70;99.90;;;;;;5066166;28;20074;-86
2022/01/08 16:50:25;;;;;;;3.97;2.45;;;4.70;99.90;;;;;;5071628;28;20443;-88
2022/01/08 16:52:51;;;;;;;5.10;2.40;;;4.70;99.90;;;;;;5041156;28;20071;-87
2022/01/08 16:55:17;;;;;;;5.53;2.35;;;4.70;99.90;;;;;;5055416;28;20043;-87
2022/01/08 16:57:44;;;;;;;3.80;2.25;;;4.70;99.90;;;;;;5055722;28;20394;-86
2022/01/08 17:00:10;;;;;;;4.70;2.42;;;4.80;99.90;;;;;;5054713;28;20043;-86
2022/01/08 17:02:38;;;;;;;5.95;3.20;;;4.80;99.90;;;;;;5069213;28;20482;-86
2022/01/08 17:05:06;;;;;;;6.18;2.72;;;4.80;99.90;;;;;;5057344;28;20487;-87
2022/01/08 17:07:33;;;;;;;4.45;2.45;;;4.80;99.90;;;;;;5054347;28;20032;-87
2022/01/08 17:09:59;;;;;;;4.97;2.63;;;4.80;99.90;;;;;;5073905;28;20025;-87
2022/01/08 17:12:27;;;;;;;4.82;2.40;;;4.80;99.90;;;;;;5057249;28;20398;-85
2022/01/08 17:14:55;;;;;;;5.00;2.80;;;4.80;99.90;;;;;;5040831;28;20167;-85
2022/01/08 17:17:21;;;;;;;5.97;3.15;;;4.90;99.90;;;;;;5070955;28;20612;-86
2022/01/08 17:19:48;;;;;;;5.10;2.50;;;4.90;99.90;;;;;;5054359;28;20061;-85
2022/01/08 17:22:13;;;;;;;3.58;2.22;;;5.00;99.90;;;;;;5075406;28;20039;-87
2022/01/08 17:24:39;;;;;;;7.25;3.38;;;4.90;99.90;;;;;;5053968;28;20044;-85
2022/01/08 17:27:06;;;;;;;4.97;2.30;;;5.00;99.90;;;;;;5069022;28;20594;-85
2022/01/08 17:29:33;;;;;;;4.63;2.50;;;5.00;99.90;;;;;;5091881;28;20024;-86
2022/01/08 17:31:59;;;;;;;5.03;2.42;;;5.00;99.90;;;;;;5070338;28;20021;-85
2022/01/08 17:34:24;;;;;;;4.18;2.30;;;5.00;99.90;;;;;;5055400;28;20123;-85
2022/01/08 17:36:50;;;;;;;4.25;2.45;;;5.00;99.90;;;;;;5073854;28;20041;-85
2022/01/08 17:39:16;;;;;;;3.60;2.10;;;5.10;99.90;;;;;;5058105;28;20055;-85
2022/01/08 17:41:42;;;;;;;4.20;2.10;;;5.10;99.90;;;;;;5073587;28;20036;-86
2022/01/08 17:44:07;;;;;;;4.75;2.50;;;5.10;99.90;;;;;;5073789;28;20489;-86
2022/01/08 17:46:33;;;;;;;4.25;2.30;;;5.10;99.90;;;;;;5040448;28;20056;-85
2022/01/08 17:48:59;;;;;;;3.15;2.28;;;5.10;99.90;;;;;;5056623;28;20037;-86
2022/01/08 17:51:25;;;;;;;3.47;2.42;;;5.10;99.90;;;;;;5073458;28;20039;-85
2022/01/08 17:56:52;;;;;;;2.47;1.80;;;5.20;99.90;;;;;;5084787;28;20475;-85
2022/01/08 17:59:21;;;;;;;4.25;2.35;;;5.20;99.90;;;;;;5044744;28;20435;-85
2022/01/08 18:01:55;;;;;;;3.90;2.08;;;5.20;99.90;;;;;;5061308;28;20036;-84
2022/01/08 18:04:21;;;;;;;4.10;2.10;;;5.20;99.90;;;;;;5094048;28;20036;-86
2022/01/08 18:06:56;;;;;;;2.28;1.60;;;5.20;99.90;;;;;;5077268;28;20392;-85
2022/01/08 18:09:34;;;;;;;5.00;2.00;;;5.30;99.90;;;;;;5045254;28;20040;-86
2022/01/08 18:12:03;;;;;;;3.00;1.88;;;5.30;99.90;;;;;;5061349;28;20032;-86
2022/01/08 18:14:43;;;;;;;4.55;1.92;;;5.30;99.90;;;;;;5060919;28;20059;-87
2022/01/08 18:17:18;;;;;;;3.22;2.20;;;5.30;99.90;;;;;;5061857;28;20035;-87
2022/01/08 18:19:45;;;;;;;2.00;1.75;;;5.40;99.90;;;;;;5062037;28;20071;-87
2022/01/08 18:22:16;;;;;;;4.82;1.80;;;5.40;99.90;;;;;;5059832;28;20032;-87
2022/01/08 18:25:12;;;;;;;3.15;1.85;;;5.40;99.90;;;;;;5078057;28;20157;-88
2022/01/08 18:28:41;;;;;;;;;;;;;;;;;;;;;
2022/01/08 18:31:09;;;;;;;3.38;1.70;;;5.40;99.90;;;;;;5090772;28;20020;-87
2022/01/08 18:33:38;;;;;;;1.73;1.58;;;5.40;99.90;;;;;;5073870;28;20440;-87
2022/01/08 18:36:15;;;;;;;2.92;1.58;;;5.50;99.90;;;;;;5050482;28;20029;-86
2022/01/08 18:39:12;;;;;;;2.75;1.52;;;5.50;99.90;;;;;;5045479;28;20111;-87
2022/01/08 18:41:38;;;;;;;2.95;1.77;;;5.50;99.90;;;;;;5057274;28;20032;-88
2022/01/08 18:44:10;;;;;;;2.40;1.40;;;5.60;99.90;;;;;;5077867;28;20033;-83
2022/01/08 18:46:43;;;;;;;2.35;1.77;;;5.60;99.90;;;;;;5066651;28;20040;-84
2022/01/08 18:49:09;;;;;;;3.47;1.60;;;5.60;99.90;;;;;;5081261;28;20028;-85
2022/01/08 18:51:35;;;;;;;3.53;1.88;;;5.60;99.90;;;;;;5076341;28;20033;-87
2022/01/08 18:54:06;;;;;;;3.17;1.70;;;5.60;99.90;;;;;;5050410;28;20150;-88
2022/01/08 18:56:45;;;;;;;3.42;1.60;;;5.60;99.90;;;;;;5053759;28;20040;-87
2022/01/08 18:59:46;;;;;;;3.13;1.80;;;5.60;99.90;;;;;;5037775;28;20041;-86
2022/01/08 19:02:21;;;;;;;2.92;1.80;;;5.70;99.90;;;;;;5043082;28;20032;-87
2022/01/08 19:04:47;;;;;;;3.70;1.45;;;5.70;99.90;;;;;;5034538;28;20508;-86
2022/01/08 19:07:19;;;;;;;2.28;1.52;;;5.70;99.90;;;;;;5054118;28;20029;-86
2022/01/08 19:09:48;;;;;;;2.50;1.67;;;5.70;99.90;;;;;;5053976;28;20082;-86
2022/01/08 19:12:29;;;;;;;3.33;1.90;;;5.70;99.90;;;;;;5037648;28;20040;-88
2022/01/08 19:15:07;;;;;;;2.33;1.65;;;5.70;99.90;;;;;;5037938;28;20029;-86
2022/01/08 19:17:33;;;;;;;1.75;1.10;;;5.80;99.90;;;;;;5057427;28;20029;-86
2022/01/08 19:20:08;;;;;;;2.53;1.60;;;5.80;99.90;;;;;;5042085;28;20060;-88
2022/01/08 19:22:34;;;;;;;1.58;1.40;;;5.80;99.90;;;;;;5027929;28;20095;-86
2022/01/08 19:25:01;;;;;;;2.45;1.40;;;5.80;99.90;;;;;;5062027;28;20037;-88
2022/01/08 19:27:31;;;;;;;2.80;1.70;;;5.80;99.90;;;;;;5057851;28;20033;-88
2022/01/08 19:29:57;;;;;;;2.28;1.65;;;5.80;99.90;;;;;;5036840;28;20063;-87
2022/01/08 19:32:23;;;;;;;1.83;1.50;;;5.80;99.90;;;;;;5055836;28;20053;-88
2022/01/08 19:34:50;;;;;;;1.33;1.20;;;5.80;99.90;;;;;;5060267;28;20036;-87
2022/01/08 19:37:16;;;;;;;1.95;1.20;;;5.80;99.90;;;;;;5063994;28;20025;-88
2022/01/08 19:39:46;;;;;;;2.67;1.20;;;5.80;99.90;;;;;;5059212;28;20033;-87
2022/01/08 19:42:17;;;;;;;1.63;1.07;;;5.80;99.90;;;;;;5042018;28;20040;-86
2022/01/08 19:44:47;;;;;;;2.05;1.30;;;5.80;99.90;;;;;;5059109;28;20439;-85
2022/01/08 19:47:18;;;;;;;2.17;1.15;;;5.80;99.90;;;;;;5025185;28;20033;-87
2022/01/08 19:49:49;;;;;;;1.60;1.35;;;5.80;99.90;;;;;;5057548;28;20025;-88
2022/01/08 19:52:16;;;;;;;3.42;1.40;;;5.90;99.90;;;;;;5041670;28;20040;-88
2022/01/08 19:54:51;;;;;;;2.88;1.20;;;5.80;99.90;;;;;;5041270;28;20049;-86
2022/01/08 19:57:20;;;;;;;2.13;1.30;;;5.90;99.90;;;;;;5042640;28;20064;-87
2022/01/08 19:59:47;;;;;;;2.28;1.50;;;5.80;99.90;;;;;;5042181;28;20044;-87
2022/01/08 20:02:14;;;;;;;1.85;1.20;;;5.80;99.90;;;;;;5025082;28;20064;-86
2022/01/08 20:04:46;;;;;;;1.83;1.17;;;5.90;99.90;;;;;;5042611;28;20037;-89
2022/01/08 20:07:25;;;;;;;4.03;1.20;;;5.80;99.90;;;;;;5040565;28;20025;-84
2022/01/08 20:09:57;;;;;;;3.08;1.55;;;5.80;99.90;;;;;;5057744;28;20032;-84
2022/01/08 20:12:28;;;;;;;2.30;1.23;;;5.90;99.90;;;;;;5056352;28;20018;-85
2022/01/08 20:15:20;;;;;;;1.60;1.00;;;5.90;99.90;;;;;;5022938;28;20044;-83
2022/01/08 20:18:04;;;;;;;2.25;1.20;;;5.90;99.90;;;;;;5028995;28;20044;-83
2022/01/08 20:20:36;;;;;;;3.67;1.20;;;5.80;99.90;;;;;;5056081;28;20039;-85
2022/01/08 20:23:11;;;;;;;2.20;1.17;;;5.90;99.90;;;;;;5039396;28;20127;-84
2022/01/08 20:25:43;;;;;;;2.83;1.25;;;5.90;99.90;;;;;;5039702;28;20040;-84
2022/01/08 20:28:12;;;;;;;2.25;1.30;;;5.90;99.90;;;;;;5055781;28;20040;-84
2022/01/08 20:30:54;;;;;;;2.00;1.02;;;5.90;99.90;;;;;;5039211;28;20036;-84
2022/01/08 20:33:20;;;;;;;2.00;1.08;;;5.90;99.90;;;;;;5039249;28;20059;-85
2022/01/08 20:35:48;;;;;;;1.45;1.00;;;5.90;99.90;;;;;;5039036;28;20041;-84
2022/01/08 20:38:14;;;;;;;1.88;1.13;;;5.90;99.90;;;;;;5039180;28;20486;-84
2022/01/08 20:40:42;;;;;;;1.70;1.25;;;5.90;99.90;;;;;;5056443;28;20033;-85
2022/01/08 20:43:07;;;;;;;2.28;1.50;;;5.90;99.90;;;;;;5055378;28;20028;-85
2022/01/08 20:45:35;;;;;;;1.98;1.25;;;6.00;99.90;;;;;;5022694;28;20036;-85
2022/01/08 20:48:04;;;;;;;2.25;1.67;;;5.90;99.90;;;;;;5055377;28;20029;-83
2022/01/08 20:50:34;;;;;;;2.42;1.17;;;5.90;99.90;;;;;;5039341;28;20071;-84
2022/01/08 20:53:02;;;;;;;2.70;1.45;;;5.90;99.90;;;;;;5055965;28;20037;-84
2022/01/08 20:55:30;;;;;;;2.25;1.67;;;5.90;99.90;;;;;;5038897;28;20080;-83
2022/01/08 20:58:04;;;;;;;2.00;1.55;;;6.00;99.90;;;;;;5055547;28;20037;-85
2022/01/08 21:00:33;;;;;;;2.03;1.30;;;5.90;99.90;;;;;;5055746;28;20501;-83
2022/01/08 21:03:00;;;;;;;2.83;1.58;;;5.90;99.90;;;;;;5055264;28;20029;-85
2022/01/08 21:05:28;;;;;;;2.95;1.80;;;5.90;99.90;;;;;;5055492;28;20037;-86
2022/01/08 21:07:54;;;;;;;2.25;1.73;;;5.90;99.90;;;;;;5055555;28;20037;-86
2022/01/08 21:10:21;;;;;;;1.90;1.10;;;5.90;99.90;;;;;;5038376;28;20033;-86
2022/01/08 21:12:48;;;;;;;3.05;1.88;;;5.90;99.90;;;;;;5021870;28;20445;-86
2022/01/08 21:15:15;;;;;;;2.13;1.50;;;5.90;99.90;;;;;;5038588;28;20036;-85
2022/01/08 21:17:42;;;;;;;2.88;2.05;;;5.90;99.90;;;;;;5038178;28;20044;-85
2022/01/08 21:20:16;;;;;;;3.25;1.75;;;5.90;99.90;;;;;;5038466;28;20462;-86
2022/01/08 21:22:42;;;;;;;2.80;1.90;;;5.90;99.90;;;;;;5038597;28;20039;-85
2022/01/08 21:25:09;;;;;;;3.58;2.15;;;5.90;99.90;;;;;;5038355;28;20061;-85
2022/01/08 21:27:38;;;;;;;4.32;2.15;;;5.90;99.90;;;;;;5037284;28;20029;-84